Annandale On Hudson, New York
Current Conditions -  °F | °C
As of 10:53 AM on Monday 24 Nov 2014 (Local Time) from KPOU Reporting Station
Overcast Overcast  
Wind Chill: 66°   Ceiling: 4100
Heat Index: 66°   Visibility: 10mi
Dew Point: 59°   Wind: 9mph
Humidity: 78%   Direction: 170°S
Pressure: 29.62"   Gusts: NA
Location:  42.01°N, 73.9°W
Report Text: KPOU 241553Z 17008KT 10SM FEW024 SCT029 OVC041 19/15 A2962 RMK AO2 RAE02 SLP026 P0000 T01890150
Loading
Personal Weather Stations






























Interactive Weather Map New forecast layout! Learn more

10-Day Weather Forecast

Advertisements
Track Severe Weather on mobile